createdAt,value
2023-03-13T00:02:02.503Z,34.53
2023-03-13T00:04:29.909Z,33.30
2023-03-13T00:06:57.320Z,51.93
2023-03-13T00:09:24.924Z,37.67
2023-03-13T00:11:52.418Z,38.00
2023-03-13T00:14:19.863Z,39.57
2023-03-13T00:16:47.367Z,37.03
2023-03-13T00:19:16.253Z,40.07
2023-03-13T00:21:43.659Z,35.47
2023-03-13T00:24:12.503Z,36.03
2023-03-13T00:26:39.989Z,36.13
2023-03-13T00:29:07.492Z,30.47
2023-03-13T00:31:35.641Z,30.27
2023-03-13T00:34:03.754Z,46.47
2023-03-13T00:36:32.477Z,29.93
2023-03-13T00:39:01.698Z,48.40
2023-03-13T00:41:30.423Z,32.03
2023-03-13T00:43:57.847Z,29.30
2023-03-13T00:46:26.365Z,38.43
2023-03-13T00:48:53.910Z,37.37
2023-03-13T00:51:22.209Z,41.47
2023-03-13T00:53:49.699Z,31.63
2023-03-13T00:56:17.747Z,31.73
2023-03-13T00:58:46.067Z,31.00
2023-03-13T01:01:32.820Z,51.73
2023-03-13T01:04:06.063Z,30.40
2023-03-13T01:06:34.489Z,27.40
2023-03-13T01:09:02.428Z,26.97
2023-03-13T01:11:32.455Z,26.77
2023-03-13T01:14:01.636Z,25.10
2023-03-13T01:16:30.133Z,38.37
2023-03-13T01:18:59.889Z,30.80
2023-03-13T01:21:27.627Z,36.57
2023-03-13T01:23:55.457Z,25.03
2023-03-13T01:26:23.022Z,29.83
2023-03-13T01:28:50.693Z,37.53
2023-03-13T01:31:23.101Z,30.93
2023-03-13T01:33:51.879Z,32.50
2023-03-13T01:36:19.333Z,28.07
2023-03-13T01:38:49.016Z,33.47
2023-03-13T01:41:16.640Z,28.23
2023-03-13T01:43:45.030Z,30.40
2023-03-13T01:46:14.818Z,37.23
2023-03-13T01:48:53.576Z,27.90
2023-03-13T01:51:27.154Z,43.27
2023-03-13T01:54:01.745Z,26.27
2023-03-13T01:56:33.402Z,38.57
2023-03-13T01:59:01.135Z,29.90
2023-03-13T02:01:28.700Z,26.63
2023-03-13T02:03:57.377Z,32.13
2023-03-13T02:06:26.310Z,37.93
2023-03-13T02:08:55.834Z,39.87
2023-03-13T02:11:26.259Z,34.47
2023-03-13T02:13:54.416Z,37.13
2023-03-13T02:16:22.742Z,37.13
2023-03-13T02:18:50.638Z,34.17
2023-03-13T02:21:38.338Z,26.70
2023-03-13T02:24:08.860Z,29.13
2023-03-13T02:26:36.401Z,32.70
2023-03-13T02:29:03.821Z,23.43
2023-03-13T02:31:31.886Z,28.43
2023-03-13T02:34:01.577Z,31.47
2023-03-13T02:36:31.125Z,26.53
2023-03-13T02:39:02.080Z,38.53
2023-03-13T02:41:30.846Z,28.97
2023-03-13T02:43:59.876Z,30.03
2023-03-13T02:46:27.760Z,28.47
2023-03-13T02:48:57.094Z,34.47
2023-03-13T02:51:33.716Z,27.63
2023-03-13T02:54:03.414Z,34.10
2023-03-13T02:56:32.820Z,27.37
2023-03-13T02:59:00.662Z,39.87
2023-03-13T03:01:28.411Z,30.37
2023-03-13T03:03:55.980Z,43.67
2023-03-13T03:06:23.444Z,23.47
2023-03-13T03:08:51.434Z,31.17
2023-03-13T03:11:19.285Z,35.33
2023-03-13T03:13:51.596Z,31.67
2023-03-13T03:16:20.608Z,32.70
2023-03-13T03:18:48.158Z,30.27
2023-03-13T03:21:15.599Z,30.00
2023-03-13T03:23:43.032Z,35.53
2023-03-13T03:26:10.619Z,27.40
2023-03-13T03:28:39.100Z,34.40
2023-03-13T03:31:12.268Z,30.70
2023-03-13T03:33:40.766Z,28.23
2023-03-13T03:36:15.868Z,31.83
2023-03-13T03:38:45.393Z,45.40
2023-03-13T03:41:15.653Z,28.40
2023-03-13T03:43:43.584Z,38.53
2023-03-13T03:46:13.283Z,35.73
2023-03-13T03:48:40.761Z,32.53
2023-03-13T03:51:10.164Z,25.83
2023-03-13T03:53:40.965Z,34.60
2023-03-13T03:56:08.665Z,26.60
2023-03-13T03:58:40.104Z,27.60
2023-03-13T04:01:18.470Z,37.30
2023-03-13T04:03:46.102Z,29.67
2023-03-13T04:06:14.284Z,21.40
2023-03-13T04:08:42.732Z,24.10
2023-03-13T04:11:12.815Z,30.77
2023-03-13T04:13:44.136Z,31.13
2023-03-13T04:16:12.289Z,24.33
2023-03-13T04:18:41.491Z,21.10
2023-03-13T04:21:09.486Z,24.43
2023-03-13T04:23:50.973Z,22.33
2023-03-13T04:26:18.977Z,30.37
2023-03-13T04:28:47.187Z,23.63
2023-03-13T04:31:19.569Z,18.83
2023-03-13T04:34:09.905Z,28.20
2023-03-13T04:36:57.678Z,22.53
2023-03-13T04:39:41.584Z,22.37
2023-03-13T04:42:22.009Z,21.50
2023-03-13T04:44:59.138Z,32.20
2023-03-13T04:47:39.905Z,21.73
2023-03-13T04:50:27.609Z,27.17
2023-03-13T04:53:13.588Z,18.70
2023-03-13T04:55:57.673Z,16.57
2023-03-13T04:58:46.588Z,23.43
2023-03-13T05:01:32.984Z,22.60
2023-03-13T05:04:16.260Z,21.87
2023-03-13T05:07:02.517Z,19.83
2023-03-13T05:09:47.598Z,16.10
2023-03-13T05:12:34.186Z,18.13
2023-03-13T05:15:15.400Z,15.87
2023-03-13T05:17:43.523Z,16.27
2023-03-13T05:20:24.884Z,10.83
2023-03-13T05:23:02.957Z,12.10
2023-03-13T05:25:56.611Z,11.03
2023-03-13T05:28:44.391Z,10.37
2023-03-13T05:31:30.291Z,10.80
2023-03-13T05:34:19.712Z,5.50
2023-03-13T05:37:05.458Z,14.60
2023-03-13T05:39:40.179Z,11.97
2023-03-13T05:42:36.930Z,11.97
2023-03-13T05:45:17.798Z,9.50
2023-03-13T05:47:55.605Z,9.23
2023-03-13T05:50:28.985Z,8.90
2023-03-13T05:53:05.843Z,6.50
2023-03-13T05:55:40.928Z,9.07
2023-03-13T05:58:37.469Z,8.33
2023-03-13T06:01:14.795Z,8.63
2023-03-13T06:03:42.489Z,10.97
2023-03-13T06:06:11.957Z,7.17
2023-03-13T06:08:45.327Z,11.47
2023-03-13T06:11:13.709Z,5.10
2023-03-13T06:13:41.284Z,7.43
2023-03-13T06:16:41.083Z,5.70
2023-03-13T06:19:21.071Z,3.90
2023-03-13T06:21:48.460Z,8.27
2023-03-13T06:24:15.842Z,4.87
2023-03-13T06:26:43.251Z,5.50
2023-03-13T06:29:13.781Z,4.63
2023-03-13T06:31:41.296Z,7.63
2023-03-13T06:34:09.309Z,9.90
2023-03-13T06:36:36.959Z,8.97
2023-03-13T06:39:04.634Z,5.43
2023-03-13T06:41:33.053Z,5.20
2023-03-13T06:44:00.683Z,5.83
2023-03-13T06:46:28.123Z,8.00
2023-03-13T06:48:55.656Z,9.27
2023-03-13T06:51:23.255Z,6.83
2023-03-13T06:53:52.441Z,5.77
2023-03-13T06:56:21.717Z,7.73
2023-03-13T06:58:51.902Z,8.30
2023-03-13T07:01:19.688Z,9.27
2023-03-13T07:03:48.697Z,7.90
2023-03-13T07:06:16.530Z,7.30
2023-03-13T07:08:44.226Z,8.50
2023-03-13T07:11:12.535Z,8.73
2023-03-13T07:13:40.380Z,9.10
2023-03-13T07:16:09.757Z,8.73
2023-03-13T07:18:38.272Z,9.37
2023-03-13T07:21:06.439Z,13.37
2023-03-13T07:23:35.185Z,12.20
2023-03-13T07:26:04.087Z,11.40
2023-03-13T07:28:32.209Z,9.33
2023-03-13T07:31:13.116Z,13.13
2023-03-13T07:33:41.098Z,13.70
2023-03-13T07:36:08.934Z,13.13
2023-03-13T07:38:36.405Z,8.90
2023-03-13T07:41:04.444Z,15.10
2023-03-13T07:43:31.986Z,14.07
2023-03-13T07:46:03.880Z,10.43
2023-03-13T07:48:32.829Z,8.10
2023-03-13T07:51:00.309Z,8.67
2023-03-13T07:53:28.114Z,8.07
2023-03-13T07:56:06.471Z,11.10
2023-03-13T07:58:35.304Z,11.40
2023-03-13T08:01:08.650Z,9.60
2023-03-13T08:03:36.335Z,12.03
2023-03-13T08:06:05.684Z,8.67
2023-03-13T08:08:33.264Z,7.07
2023-03-13T08:11:04.470Z,12.27
2023-03-13T08:13:33.047Z,9.00
2023-03-13T08:16:11.592Z,8.53
2023-03-13T08:18:40.206Z,7.30
2023-03-13T08:21:12.416Z,8.97
2023-03-13T08:23:40.018Z,5.90
2023-03-13T08:26:08.989Z,6.40
2023-03-13T08:28:36.815Z,5.87
2023-03-13T08:31:11.186Z,6.67
2023-03-13T08:33:39.109Z,9.57
2023-03-13T08:36:20.706Z,5.10
2023-03-13T08:38:48.534Z,4.20
2023-03-13T08:41:17.272Z,8.07
2023-03-13T08:43:45.045Z,8.83
2023-03-13T08:46:12.715Z,6.60
2023-03-13T08:48:40.156Z,9.00
2023-03-13T08:51:09.767Z,6.93
2023-03-13T08:53:37.699Z,6.97
2023-03-13T08:56:05.558Z,4.57
2023-03-13T08:58:33.189Z,8.70
2023-03-13T09:01:04.712Z,5.17
2023-03-13T09:03:32.722Z,9.13
2023-03-13T09:06:00.475Z,7.37
2023-03-13T09:08:28.746Z,3.23
2023-03-13T09:10:59.917Z,7.82
2023-03-13T09:13:28.086Z,5.63
2023-03-13T09:15:56.453Z,4.67
2023-03-13T09:18:24.614Z,6.07
2023-03-13T09:20:52.215Z,7.97
2023-03-13T09:23:20.198Z,4.37
2023-03-13T09:25:47.776Z,8.20
2023-03-13T09:28:15.186Z,7.10
2023-03-13T09:30:42.628Z,9.67
2023-03-13T09:33:10.141Z,6.10
2023-03-13T09:35:39.884Z,8.47
2023-03-13T09:38:07.697Z,6.13
2023-03-13T09:40:39.328Z,6.73
2023-03-13T09:43:13.993Z,8.83
2023-03-13T09:45:43.173Z,4.77
2023-03-13T09:48:28.544Z,5.73
2023-03-13T09:51:19.242Z,5.50
2023-03-13T09:54:12.968Z,6.63
2023-03-13T09:56:50.079Z,7.10
2023-03-13T09:59:20.343Z,14.10
2023-03-13T10:01:48.928Z,8.40
2023-03-13T10:04:19.403Z,7.57
2023-03-13T10:06:48.160Z,6.53
2023-03-13T10:09:20.396Z,10.13
2023-03-13T10:12:00.164Z,6.23
2023-03-13T10:14:43.548Z,9.10
2023-03-13T10:17:23.209Z,7.20
2023-03-13T10:19:56.494Z,6.43
2023-03-13T10:22:26.605Z,12.23
2023-03-13T10:24:54.010Z,6.00
2023-03-13T10:27:21.512Z,10.10
2023-03-13T10:29:48.884Z,7.17
2023-03-13T10:32:17.894Z,3.53
2023-03-13T10:35:05.672Z,12.97
2023-03-13T10:37:41.448Z,10.20
2023-03-13T10:40:14.777Z,6.73
2023-03-13T10:42:46.065Z,6.30
2023-03-13T10:45:21.618Z,7.00
2023-03-13T10:47:56.614Z,10.00
2023-03-13T10:50:25.460Z,8.60
2023-03-13T10:52:53.122Z,8.17
2023-03-13T10:55:21.852Z,8.57
2023-03-13T10:57:55.347Z,8.03
2023-03-13T11:00:36.297Z,6.27
2023-03-13T11:03:20.333Z,5.07
2023-03-13T11:06:02.145Z,5.90
2023-03-13T11:08:35.641Z,5.27
2023-03-13T11:11:04.695Z,4.77
2023-03-13T11:13:37.377Z,8.47
2023-03-13T11:16:24.969Z,7.10
2023-03-13T11:18:57.218Z,5.53
2023-03-13T11:21:31.048Z,16.93
2023-03-13T11:24:04.305Z,6.10
2023-03-13T11:26:35.827Z,5.57
2023-03-13T11:29:03.461Z,7.30
2023-03-13T11:31:36.469Z,8.03
2023-03-13T11:34:06.728Z,7.17
2023-03-13T11:36:34.308Z,7.40
2023-03-13T11:39:20.620Z,4.63
2023-03-13T11:41:48.298Z,6.37
2023-03-13T11:44:25.366Z,4.53
2023-03-13T11:47:04.820Z,11.77
2023-03-13T11:49:50.619Z,8.17
2023-03-13T11:52:24.284Z,1.40
2023-03-13T11:54:57.967Z,5.33
2023-03-13T11:57:29.849Z,4.80
2023-03-13T12:00:07.321Z,6.60
2023-03-13T12:02:41.313Z,4.07
2023-03-13T12:05:14.969Z,5.83
2023-03-13T12:07:45.332Z,2.00
2023-03-13T12:10:17.437Z,4.53
2023-03-13T12:12:44.831Z,5.93
2023-03-13T12:15:23.529Z,3.07
2023-03-13T12:18:09.843Z,7.27
2023-03-13T12:20:57.241Z,4.13
2023-03-13T12:23:33.859Z,4.60
2023-03-13T12:26:07.832Z,3.70
2023-03-13T12:28:35.260Z,4.17
2023-03-13T12:31:21.627Z,5.70
2023-03-13T12:33:49.132Z,3.17
2023-03-13T12:36:39.780Z,9.53
2023-03-13T12:39:43.398Z,8.07
2023-03-13T12:42:13.665Z,5.60
2023-03-13T12:44:41.462Z,4.50
2023-03-13T12:47:20.881Z,5.60
2023-03-13T12:49:54.339Z,7.40
2023-03-13T12:52:40.700Z,2.60
2023-03-13T12:55:26.855Z,3.97
2023-03-13T12:57:54.965Z,3.43
2023-03-13T13:00:24.416Z,2.87
2023-03-13T13:03:10.714Z,3.10
2023-03-13T13:05:38.235Z,3.67
2023-03-13T13:08:05.760Z,1.73
2023-03-13T13:10:33.331Z,6.22
2023-03-13T13:13:15.810Z,5.22
2023-03-13T13:15:48.156Z,2.50
2023-03-13T13:18:25.991Z,2.07
2023-03-13T13:21:02.534Z,1.97
2023-03-13T13:23:42.092Z,5.63
2023-03-13T13:26:30.612Z,3.67
2023-03-13T13:28:59.073Z,2.10
2023-03-13T13:31:57.098Z,1.70
2023-03-13T13:34:34.375Z,2.70
2023-03-13T13:37:24.854Z,4.60
2023-03-13T13:39:53.587Z,5.33
2023-03-13T13:42:33.174Z,3.80
2023-03-13T13:45:15.864Z,3.40
2023-03-13T13:47:47.912Z,2.07
2023-03-13T13:50:19.252Z,2.40
2023-03-13T13:52:46.769Z,2.63
2023-03-13T13:55:29.418Z,7.17
2023-03-13T13:58:20.298Z,0.73
2023-03-13T14:00:53.447Z,7.47
2023-03-13T14:03:25.211Z,1.90
2023-03-13T14:05:55.026Z,1.10
2023-03-13T14:08:25.889Z,5.40
2023-03-13T14:10:56.019Z,3.90
2023-03-13T14:13:24.883Z,2.67
2023-03-13T14:15:53.226Z,0.83
2023-03-13T14:18:25.263Z,1.00
2023-03-13T14:20:52.986Z,7.60
2023-03-13T14:23:31.657Z,3.70
2023-03-13T14:25:59.102Z,0.90
2023-03-13T14:28:27.777Z,1.67
2023-03-13T14:30:57.696Z,5.83
2023-03-13T14:33:26.871Z,7.20
2023-03-13T14:35:55.423Z,1.20
2023-03-13T14:38:24.181Z,1.63
2023-03-13T14:40:52.548Z,7.83
2023-03-13T14:43:27.488Z,2.57
2023-03-13T14:45:55.268Z,3.27
2023-03-13T14:48:33.264Z,2.30
2023-03-13T14:51:15.781Z,2.77
2023-03-13T14:54:00.216Z,1.40
2023-03-13T14:56:35.305Z,1.50
2023-03-13T14:59:09.691Z,4.27
2023-03-13T15:01:37.068Z,1.33
2023-03-13T15:04:04.477Z,3.17
2023-03-13T15:06:31.858Z,7.53
2023-03-13T15:09:08.734Z,7.30
2023-03-13T15:11:37.341Z,1.70
2023-03-13T15:14:04.715Z,5.83
2023-03-13T15:16:32.396Z,1.27
2023-03-13T15:18:59.701Z,4.77
2023-03-13T15:21:28.693Z,1.03
2023-03-13T15:24:13.377Z,1.87
2023-03-13T15:26:40.714Z,1.40
2023-03-13T15:29:08.546Z,1.93
2023-03-13T15:31:35.940Z,6.80
2023-03-13T15:34:03.608Z,1.70
2023-03-13T15:36:32.403Z,2.10
2023-03-13T15:38:59.718Z,3.70
2023-03-13T15:41:27.918Z,1.23
2023-03-13T15:43:57.000Z,4.07
2023-03-13T15:46:25.339Z,1.73
2023-03-13T15:48:54.033Z,6.10
2023-03-13T15:51:21.468Z,5.10
2023-03-13T15:53:48.882Z,4.93
2023-03-13T15:56:17.482Z,1.90
2023-03-13T15:58:47.025Z,5.63
2023-03-13T16:01:14.970Z,1.70
2023-03-13T16:03:42.873Z,1.50
2023-03-13T16:06:13.102Z,2.17
2023-03-13T16:08:40.575Z,0.93
2023-03-13T16:11:07.913Z,2.30
2023-03-13T16:13:35.286Z,3.87
2023-03-13T16:16:02.915Z,7.40
2023-03-13T16:18:30.207Z,3.03
2023-03-13T16:20:57.520Z,4.47
2023-03-13T16:23:25.058Z,2.23
2023-03-13T16:25:52.477Z,4.43
2023-03-13T16:28:19.768Z,1.47
2023-03-13T16:30:50.212Z,7.10
2023-03-13T16:33:17.621Z,6.93
2023-03-13T16:35:45.057Z,5.00
2023-03-13T16:38:12.581Z,3.07
2023-03-13T16:40:40.332Z,2.60
2023-03-13T16:43:07.711Z,4.67
2023-03-13T16:45:34.974Z,3.73
2023-03-13T16:48:02.379Z,1.77
2023-03-13T16:50:33.562Z,2.17
2023-03-13T16:53:00.999Z,2.73
2023-03-13T16:55:28.799Z,2.43
2023-03-13T16:57:59.591Z,4.00
2023-03-13T17:00:27.916Z,6.47
2023-03-13T17:02:57.441Z,3.87
2023-03-13T17:05:25.740Z,2.27
2023-03-13T17:07:53.091Z,7.40
2023-03-13T17:10:28.652Z,5.23
2023-03-13T17:12:56.490Z,3.70
2023-03-13T17:15:24.575Z,4.47
2023-03-13T17:17:52.462Z,10.93
2023-03-13T17:20:21.108Z,3.13
2023-03-13T17:22:48.405Z,3.23
2023-03-13T17:25:15.753Z,3.40
2023-03-13T17:27:43.610Z,1.57
2023-03-13T17:30:19.712Z,7.57
2023-03-13T17:32:48.089Z,3.27
2023-03-13T17:35:15.570Z,3.23
2023-03-13T17:37:44.527Z,5.43
2023-03-13T17:40:14.995Z,5.33
2023-03-13T17:42:42.381Z,2.37
2023-03-13T17:45:10.044Z,10.13
2023-03-13T17:47:37.328Z,9.67
2023-03-13T17:50:05.116Z,2.27
2023-03-13T17:52:32.518Z,9.80
2023-03-13T17:54:59.823Z,7.43
2023-03-13T17:57:27.421Z,2.03
2023-03-13T17:59:55.010Z,3.87
2023-03-13T18:02:22.993Z,4.93
2023-03-13T18:04:51.101Z,4.97
2023-03-13T18:07:28.620Z,3.00
2023-03-13T18:09:56.105Z,4.13
2023-03-13T18:12:23.424Z,7.87
2023-03-13T18:14:51.195Z,6.27
2023-03-13T18:17:23.203Z,4.17
2023-03-13T18:19:51.432Z,6.93
2023-03-13T18:22:21.501Z,4.17
2023-03-13T18:24:49.461Z,4.30
2023-03-13T18:27:17.939Z,2.63
2023-03-13T18:29:46.656Z,2.77
2023-03-13T18:32:14.889Z,9.07
2023-03-13T18:34:43.360Z,3.37
2023-03-13T18:37:22.583Z,8.60
2023-03-13T18:39:50.666Z,3.83
2023-03-13T18:42:19.273Z,3.50
2023-03-13T18:44:46.775Z,3.17
2023-03-13T18:47:16.451Z,7.67
2023-03-13T18:49:44.526Z,7.20
2023-03-13T18:52:12.702Z,5.37
2023-03-13T18:54:40.443Z,5.00
2023-03-13T18:57:12.810Z,3.73
2023-03-13T18:59:40.697Z,3.50
2023-03-13T19:02:13.178Z,3.70
2023-03-13T19:04:40.629Z,3.47
2023-03-13T19:07:12.639Z,3.30
2023-03-13T19:09:44.744Z,5.37
2023-03-13T19:12:15.480Z,4.87
2023-03-13T19:14:43.655Z,4.53
2023-03-13T19:17:24.837Z,4.40
2023-03-13T19:19:57.397Z,2.83
2023-03-13T19:22:25.956Z,5.13
2023-03-13T19:24:53.690Z,5.37
2023-03-13T19:27:21.513Z,6.10
2023-03-13T19:29:48.957Z,4.97
2023-03-13T19:32:17.914Z,2.33
2023-03-13T19:34:45.959Z,6.53
2023-03-13T19:37:14.776Z,8.53
2023-03-13T19:39:42.825Z,6.60
2023-03-13T19:42:10.287Z,9.13
2023-03-13T19:44:38.005Z,14.23
2023-03-13T19:47:05.711Z,4.77
2023-03-13T19:49:33.674Z,8.00
2023-03-13T19:52:01.274Z,3.33
2023-03-13T19:54:28.735Z,6.03
2023-03-13T19:56:56.287Z,7.70
2023-03-13T19:59:26.712Z,15.67
2023-03-13T20:01:55.817Z,8.37
2023-03-13T20:04:25.074Z,7.37
2023-03-13T20:06:52.555Z,5.20
2023-03-13T20:09:21.503Z,4.57
2023-03-13T20:11:49.263Z,7.87
2023-03-13T20:14:16.900Z,8.40
2023-03-13T20:16:47.429Z,5.20
2023-03-13T20:19:15.327Z,8.70
2023-03-13T20:21:42.921Z,5.77
2023-03-13T20:24:10.902Z,12.13
2023-03-13T20:26:38.446Z,8.50
2023-03-13T20:29:05.882Z,5.60
2023-03-13T20:31:33.411Z,5.80
2023-03-13T20:34:00.949Z,5.97
2023-03-13T20:36:28.539Z,5.23
2023-03-13T20:38:56.715Z,7.03
2023-03-13T20:41:27.417Z,5.47
2023-03-13T20:43:55.001Z,4.03
2023-03-13T20:46:22.753Z,6.53
2023-03-13T20:48:50.563Z,6.93
2023-03-13T20:51:18.123Z,8.17
2023-03-13T20:53:45.693Z,5.60
2023-03-13T20:56:13.276Z,3.30
2023-03-13T20:58:40.749Z,5.13
2023-03-13T21:01:08.459Z,16.07
2023-03-13T21:03:36.527Z,6.20
2023-03-13T21:06:10.308Z,7.50
2023-03-13T21:08:38.887Z,13.13
2023-03-13T21:11:16.872Z,9.97
2023-03-13T21:13:44.422Z,8.67
2023-03-13T21:16:13.189Z,5.97
2023-03-13T21:18:40.956Z,8.13
2023-03-13T21:21:09.953Z,6.57
2023-03-13T21:23:39.908Z,8.03
2023-03-13T21:26:07.563Z,9.80
2023-03-13T21:28:35.355Z,20.70
2023-03-13T21:31:13.142Z,6.87
2023-03-13T21:33:41.424Z,12.40
2023-03-13T21:36:09.942Z,13.70
2023-03-13T21:38:37.844Z,6.57
2023-03-13T21:41:09.100Z,6.33
2023-03-13T21:43:37.489Z,9.67
2023-03-13T21:46:05.148Z,8.73
2023-03-13T21:48:32.537Z,8.43
2023-03-13T21:51:00.374Z,8.80
2023-03-13T21:53:27.781Z,7.90
2023-03-13T21:55:55.342Z,10.60
2023-03-13T21:58:22.767Z,10.37
2023-03-13T22:00:53.698Z,9.97
2023-03-13T22:03:21.174Z,13.03
2023-03-13T22:05:48.773Z,4.97
2023-03-13T22:08:16.187Z,4.80
2023-03-13T22:10:48.939Z,9.67
2023-03-13T22:13:16.485Z,7.68
2023-03-13T22:15:46.236Z,9.70
2023-03-13T22:18:17.105Z,6.53
2023-03-13T22:20:44.735Z,9.20
2023-03-13T22:23:12.751Z,8.77
2023-03-13T22:25:43.729Z,8.03
2023-03-13T22:28:11.779Z,5.30
2023-03-13T22:30:39.763Z,7.20
2023-03-13T22:33:08.187Z,12.00
2023-03-13T22:35:35.832Z,7.53
2023-03-13T22:38:03.276Z,7.43
2023-03-13T22:40:30.843Z,7.47
2023-03-13T22:42:58.365Z,8.83
2023-03-13T22:45:25.826Z,5.57
2023-03-13T22:47:53.349Z,11.23
2023-03-13T22:50:25.541Z,12.17
2023-03-13T22:52:53.653Z,7.73
2023-03-13T22:55:21.182Z,7.97
2023-03-13T22:57:48.576Z,10.13
2023-03-13T23:00:16.311Z,9.60
2023-03-13T23:02:43.688Z,8.07
2023-03-13T23:05:11.269Z,9.73
2023-03-13T23:07:40.836Z,10.70
2023-03-13T23:10:08.970Z,5.90
2023-03-13T23:12:36.482Z,4.30
2023-03-13T23:15:04.180Z,7.57
2023-03-13T23:17:32.343Z,4.53
2023-03-13T23:20:02.514Z,7.90
2023-03-13T23:22:32.776Z,10.17
2023-03-13T23:25:00.329Z,9.83
2023-03-13T23:27:27.801Z,12.63
2023-03-13T23:29:55.292Z,9.33
2023-03-13T23:32:22.913Z,6.40
2023-03-13T23:34:50.380Z,11.20
2023-03-13T23:37:17.899Z,11.30
2023-03-13T23:39:45.397Z,8.07
2023-03-13T23:42:12.899Z,7.37
2023-03-13T23:44:40.348Z,9.67
2023-03-13T23:47:07.792Z,4.37
2023-03-13T23:49:35.180Z,6.53
2023-03-13T23:52:02.541Z,9.97
2023-03-13T23:54:29.962Z,5.13
2023-03-13T23:56:57.552Z,6.17
2023-03-13T23:59:24.991Z,6.70
